地図

経路データ

SID SEASON NUMBER BASIN SUBBASIN NAME ISO_TIME NATURE LAT LON WMO_WIND WMO_PRES WMO_AGENCY TRACK_TYPE DIST2LAND LANDFALL IFLAG USA_AGENCY USA_ATCF_ID USA_LAT USA_LON USA_RECORD USA_STATUS USA_WIND USA_PRES USA_SSHS USA_R34_NE USA_R34_SE USA_R34_SW USA_R34_NW USA_R50_NE USA_R50_SE USA_R50_SW USA_R50_NW USA_R64_NE USA_R64_SE USA_R64_SW USA_R64_NW USA_POCI USA_ROCI USA_RMW USA_EYE TOKYO_LAT TOKYO_LON TOKYO_GRADE TOKYO_WIND TOKYO_PRES TOKYO_R50_DIR TOKYO_R50_LONG TOKYO_R50_SHORT TOKYO_R30_DIR TOKYO_R30_LONG TOKYO_R30_SHORT TOKYO_LAND CMA_LAT CMA_LON CMA_CAT CMA_WIND CMA_PRES HKO_LAT HKO_LON HKO_CAT HKO_WIND HKO_PRES NEWDELHI_LAT NEWDELHI_LON NEWDELHI_GRADE NEWDELHI_WIND NEWDELHI_PRES NEWDELHI_CI NEWDELHI_DP NEWDELHI_POCI REUNION_LAT REUNION_LON REUNION_TYPE REUNION_WIND REUNION_PRES REUNION_TNUM REUNION_CI REUNION_RMW REUNION_R34_NE REUNION_R34_SE REUNION_R34_SW REUNION_R34_NW REUNION_R50_NE REUNION_R50_SE REUNION_R50_SW REUNION_R50_NW REUNION_R64_NE REUNION_R64_SE REUNION_R64_SW REUNION_R64_NW BOM_LAT BOM_LON BOM_TYPE BOM_WIND BOM_PRES BOM_TNUM BOM_CI BOM_RMW BOM_R34_NE BOM_R34_SE BOM_R34_SW BOM_R34_NW BOM_R50_NE BOM_R50_SE BOM_R50_SW BOM_R50_NW BOM_R64_NE BOM_R64_SE BOM_R64_SW BOM_R64_NW BOM_ROCI BOM_POCI BOM_EYE BOM_POS_METHOD BOM_PRES_METHOD NADI_LAT NADI_LON NADI_CAT NADI_WIND NADI_PRES WELLINGTON_LAT WELLINGTON_LON WELLINGTON_WIND WELLINGTON_PRES DS824_LAT DS824_LON DS824_STAGE DS824_WIND DS824_PRES TD9636_LAT TD9636_LON TD9636_STAGE TD9636_WIND TD9636_PRES TD9635_LAT TD9635_LON TD9635_WIND TD9635_PRES TD9635_ROCI NEUMANN_LAT NEUMANN_LON NEUMANN_CLASS NEUMANN_WIND NEUMANN_PRES MLC_LAT MLC_LON MLC_CLASS MLC_WIND MLC_PRES USA_GUST BOM_GUST BOM_GUST_PER REUNION_GUST REUNION_GUST_PER USA_SEAHGT USA_SEARAD_NE USA_SEARAD_SE USA_SEARAD_SW USA_SEARAD_NW STORM_SPEED STORM_DIR
1899215N18130 1899 22 WP MM NOT_NAMED 1899-08-02 16:00:00 NR 18.0000 130.000 main 754 745 __________O___ -1 18.0000 130.000 7 3 307
1899215N18130 1899 22 WP MM NOT_NAMED 1899-08-02 18:00:00 NR 18.0582 129.916 main 752 744 __________P___ -1 18.0582 129.916 7 3 306
1899215N18130 1899 22 WP MM NOT_NAMED 1899-08-02 21:00:00 NR 18.1550 129.772 main 751 735 __________P___ -1 18.1550 129.772 7 4 304
1899215N18130 1899 22 WP MM NOT_NAMED 1899-08-03 00:00:00 NR 18.2760 129.580 main 742 726 __________P___ -1 18.2760 129.580 7 5 303
1899215N18130 1899 22 WP MM NOT_NAMED 1899-08-03 03:00:00 NR 18.4357 129.311 main 726 726 __________P___ -1 18.4357 129.311 7 6 302
1899215N18130 1899 22 WP MM NOT_NAMED 1899-08-03 04:00:00 NR 18.5000 129.200 main 726 696 __________O___ -1 18.5000 129.200 7 8 301
1899215N18130 1899 22 WP MM NOT_NAMED 1899-08-03 06:00:00 NR 18.6468 128.941 main 696 655 __________P___ -1 18.6468 128.941 7 10 301
1899215N18130 1899 22 WP MM NOT_NAMED 1899-08-03 09:00:00 NR 18.9047 128.483 main 655 606 __________P___ -1 18.9047 128.483 7 11 301
1899215N18130 1899 22 WP MM NOT_NAMED 1899-08-03 12:00:00 NR 19.1935 127.978 main 606 558 __________P___ -1 19.1935 127.978 7 11 302
1899215N18130 1899 22 WP MM NOT_NAMED 1899-08-03 15:00:00 NR 19.4978 127.465 main 560 542 __________P___ -1 19.4978 127.465 7 11 302
1899215N18130 1899 22 WP MM NOT_NAMED 1899-08-03 16:00:00 NR 19.6000 127.300 main 542 518 __________O___ -1 19.6000 127.300 7 10 304
1899215N18130 1899 22 WP MM NOT_NAMED 1899-08-03 18:00:00 NR 19.7885 127.015 main 518 485 __________P___ -1 19.7885 127.015 7 10 306
1899215N18130 1899 22 WP MM NOT_NAMED 1899-08-03 21:00:00 NR 20.0778 126.601 main 489 461 __________P___ -1 20.0778 126.601 7 10 307
1899215N18130 1899 22 WP MM NOT_NAMED 1899-08-04 00:00:00 NR 20.3778 126.186 main 466 441 __________P___ -1 20.3778 126.186 7 10 308
1899215N18130 1899 22 WP MM NOT_NAMED 1899-08-04 03:00:00 NR 20.6917 125.752 main 447 437 __________P___ -1 20.6917 125.752 7 10 308
1899215N18130 1899 22 WP MM NOT_NAMED 1899-08-04 04:00:00 NR 20.8000 125.600 main 437 427 __________O___ -1 20.8000 125.600 3 11 307
1899215N18130 1899 22 WP MM NOT_NAMED 1899-08-04 06:00:00 NR 21.0298 125.268 main 427 389 __________P___ -1 21.0298 125.268 3 12 306
1899215N18130 1899 22 WP MM NOT_NAMED 1899-08-04 09:00:00 NR 21.3874 124.744 main 389 327 __________P___ -1 21.3874 124.744 3 12 306
1899215N18130 1899 22 WP MM NOT_NAMED 1899-08-04 12:00:00 NR 21.7463 124.206 main 327 261 __________P___ -1 21.7463 124.206 3 12 305
1899215N18130 1899 22 WP MM NOT_NAMED 1899-08-04 15:00:00 NR 22.0909 123.673 main 261 237 __________P___ -1 22.0909 123.673 3 12 305
1899215N18130 1899 22 WP MM NOT_NAMED 1899-08-04 16:00:00 NR 22.2000 123.500 main 237 200 __________O___ -1 22.2000 123.500 4 11 305
1899215N18130 1899 22 WP MM NOT_NAMED 1899-08-04 18:00:00 NR 22.4077 123.179 main 200 140 __________P___ -1 22.4077 123.179 4 11 304
1899215N18130 1899 22 WP MM NOT_NAMED 1899-08-04 21:00:00 NR 22.7008 122.711 main 140 82 __________P___ -1 22.7008 122.711 4 10 303
1899215N18130 1899 22 WP MM NOT_NAMED 1899-08-05 00:00:00 NR 22.9722 122.245 main 82 40 __________P___ -1 22.9722 122.245 4 10 301
1899215N18130 1899 22 WP MM NOT_NAMED 1899-08-05 03:00:00 NR 23.2217 121.766 main 40 20 __________P___ -1 23.2217 121.766 4 10 299
1899215N18130 1899 22 WP MM NOT_NAMED 1899-08-05 04:00:00 NR 23.3000 121.600 main 20 0 __________O___ -1 23.3000 121.600 4 10 297
1899215N18130 1899 22 WP MM NOT_NAMED 1899-08-05 06:00:00 NR 23.4577 121.266 main 0 0 __________P___ -1 23.4577 121.266 4 10 296
1899215N18130 1899 22 WP MM NOT_NAMED 1899-08-05 09:00:00 NR 23.6758 120.746 main 0 0 __________P___ -1 23.6758 120.746 4 11 293
1899215N18130 1899 22 WP MM NOT_NAMED 1899-08-05 12:00:00 NR 23.8720 120.196 main 10 10 __________P___ -1 23.8720 120.196 4 11 290
1899215N18130 1899 22 WP MM NOT_NAMED 1899-08-05 15:00:00 NR 24.0466 119.607 main 67 71 __________P___ -1 24.0466 119.607 4 11 287
1899215N18130 1899 22 WP MM NOT_NAMED 1899-08-05 16:00:00 NR 24.1000 119.400 main 90 45 __________O___ -1 24.1000 119.400 4 12 284
1899215N18130 1899 22 WP MM NOT_NAMED 1899-08-05 18:00:00 NR 24.1957 118.949 main 45 10 __________P___ -1 24.1957 118.949 4 13 282
1899215N18130 1899 22 WP MM NOT_NAMED 1899-08-05 21:00:00 NR 24.3201 118.234 main 10 0 __________P___ -1 24.3201 118.234 4 13 280
1899215N18130 1899 22 WP MM NOT_NAMED 1899-08-06 00:00:00 NR 24.4348 117.510 main 0 0 __________P___ -1 24.4348 117.510 4 13 280
1899215N18130 1899 22 WP MM NOT_NAMED 1899-08-06 03:00:00 NR 24.5556 116.817 main 0 0 __________P___ -1 24.5556 116.817 4 13 281
1899215N18130 1899 22 WP MM NOT_NAMED 1899-08-06 04:00:00 NR 24.6000 116.600 main 0 0 __________O___ -1 24.6000 116.600 7 11 287
1899215N18130 1899 22 WP MM NOT_NAMED 1899-08-06 06:00:00 NR 24.7169 116.221 main 0 0 __________P___ -1 24.7169 116.221 7 11 290
1899215N18130 1899 22 WP MM NOT_NAMED 1899-08-06 09:00:00 NR 24.9062 115.696 main 0 0 __________P___ -1 24.9062 115.696 7 10 292
1899215N18130 1899 22 WP MM NOT_NAMED 1899-08-06 12:00:00 NR 25.0930 115.194 main 0 0 __________P___ -1 25.0930 115.194 7 10 291
1899215N18130 1899 22 WP MM NOT_NAMED 1899-08-06 15:00:00 NR 25.2553 114.680 main 0 0 __________P___ -1 25.2553 114.680 7 10 288
1899215N18130 1899 22 WP MM NOT_NAMED 1899-08-06 16:00:00 NR 25.3000 114.500 main 0 0 __________O___ -1 25.3000 114.500 7 10 283
1899215N18130 1899 22 WP MM NOT_NAMED 1899-08-06 18:00:00 NR 25.3721 114.122 main 0 0 __________P___ -1 25.3721 114.122 7 11 279
1899215N18130 1899 22 WP MM NOT_NAMED 1899-08-06 21:00:00 NR 25.4429 113.517 main 0 0 __________P___ -1 25.4429 113.517 7 11 275
1899215N18130 1899 22 WP MM NOT_NAMED 1899-08-07 00:00:00 NR 25.4802 112.878 main 0 0 __________P___ -1 25.4802 112.878 7 12 273
1899215N18130 1899 22 WP MM NOT_NAMED 1899-08-07 03:00:00 NR 25.4968 112.221 main 0 0 __________P___ -1 25.4968 112.221 7 12 271
1899215N18130 1899 22 WP MM NOT_NAMED 1899-08-07 04:00:00 NR 25.5000 112.000 main 0 __________O___ -1 25.5000 112.000 7 12 271

デジタル台風データ・検索

IBTrACS Databaseについて

本データベースは、米国NOAAが公開する1842年以降の世界の熱帯低気圧のベストトラックデータアーカイブInternational Best Track Archive for Climate Stewardship (IBTrACS)を、ウェブで閲覧しやすい形式に変換したものです。

最終更新日:2021-12-01